sensor_id;sensor_type;location;lat;lon;timestamp;pressure;altitude;pressure_sealevel;temperature;humidity
56689;BME280;42565;53.342;-1.534;2023-08-24T00:01:28;98959.62;;;19.58;68.95
56689;BME280;42565;53.342;-1.534;2023-08-24T00:03:55;98965.51;;;19.03;71.40
56689;BME280;42565;53.342;-1.534;2023-08-24T00:06:22;98969.89;;;18.52;73.20
56689;BME280;42565;53.342;-1.534;2023-08-24T00:08:50;98969.80;;;18.95;72.10
56689;BME280;42565;53.342;-1.534;2023-08-24T00:11:17;98977.77;;;19.17;71.82
56689;BME280;42565;53.342;-1.534;2023-08-24T00:13:45;98978.30;;;19.43;70.66
56689;BME280;42565;53.342;-1.534;2023-08-24T00:16:12;98971.91;;;19.38;69.98
56689;BME280;42565;53.342;-1.534;2023-08-24T00:18:40;98968.86;;;19.78;68.68
56689;BME280;42565;53.342;-1.534;2023-08-24T00:21:07;98962.10;;;19.18;69.45
56689;BME280;42565;53.342;-1.534;2023-08-24T00:23:35;98961.99;;;19.54;69.24
56689;BME280;42565;53.342;-1.534;2023-08-24T00:26:02;98959.82;;;19.27;68.16
56689;BME280;42565;53.342;-1.534;2023-08-24T00:28:29;98954.14;;;19.98;68.47
56689;BME280;42565;53.342;-1.534;2023-08-24T00:30:59;98951.01;;;19.55;68.57
56689;BME280;42565;53.342;-1.534;2023-08-24T00:33:27;98952.06;;;20.17;67.59
56689;BME280;42565;53.342;-1.534;2023-08-24T00:35:59;98950.21;;;20.06;66.96
56689;BME280;42565;53.342;-1.534;2023-08-24T00:38:27;98952.96;;;20.12;66.88
56689;BME280;42565;53.342;-1.534;2023-08-24T00:40:55;98953.20;;;20.00;67.16
56689;BME280;42565;53.342;-1.534;2023-08-24T00:43:23;98949.30;;;20.01;66.88
56689;BME280;42565;53.342;-1.534;2023-08-24T00:45:50;98943.85;;;20.34;66.81
56689;BME280;42565;53.342;-1.534;2023-08-24T00:48:18;98939.56;;;20.11;66.63
56689;BME280;42565;53.342;-1.534;2023-08-24T00:50:45;98942.25;;;20.21;66.24
56689;BME280;42565;53.342;-1.534;2023-08-24T00:53:13;98937.20;;;19.86;67.32
56689;BME280;42565;53.342;-1.534;2023-08-24T00:55:40;98933.05;;;20.18;66.76
56689;BME280;42565;53.342;-1.534;2023-08-24T00:58:08;98928.13;;;20.08;66.34
56689;BME280;42565;53.342;-1.534;2023-08-24T01:00:35;98925.73;;;19.59;69.03
56689;BME280;42565;53.342;-1.534;2023-08-24T01:03:03;98922.15;;;19.18;70.04
56689;BME280;42565;53.342;-1.534;2023-08-24T01:05:30;98920.24;;;19.30;70.27
56689;BME280;42565;53.342;-1.534;2023-08-24T01:07:58;98918.28;;;18.87;70.36
56689;BME280;42565;53.342;-1.534;2023-08-24T01:10:28;98910.67;;;19.31;69.68
56689;BME280;42565;53.342;-1.534;2023-08-24T01:13:06;98911.64;;;19.30;69.12
56689;BME280;42565;53.342;-1.534;2023-08-24T01:15:41;98912.53;;;19.53;69.68
56689;BME280;42565;53.342;-1.534;2023-08-24T01:18:13;98913.93;;;19.10;70.57
56689;BME280;42565;53.342;-1.534;2023-08-24T01:20:41;98917.92;;;19.57;70.55
56689;BME280;42565;53.342;-1.534;2023-08-24T01:23:27;98920.02;;;18.99;71.25
56689;BME280;42565;53.342;-1.534;2023-08-24T01:26:08;98921.89;;;18.96;70.54
56689;BME280;42565;53.342;-1.534;2023-08-24T01:28:36;98919.16;;;18.87;72.79
56689;BME280;42565;53.342;-1.534;2023-08-24T01:31:05;98919.81;;;18.94;71.59
56689;BME280;42565;53.342;-1.534;2023-08-24T01:33:33;98923.10;;;19.52;70.31
56689;BME280;42565;53.342;-1.534;2023-08-24T01:36:00;98921.71;;;19.39;69.24
56689;BME280;42565;53.342;-1.534;2023-08-24T01:38:28;98915.64;;;19.68;68.80
56689;BME280;42565;53.342;-1.534;2023-08-24T01:41:04;98907.22;;;19.58;69.45
56689;BME280;42565;53.342;-1.534;2023-08-24T01:43:37;98902.16;;;19.97;69.91
56689;BME280;42565;53.342;-1.534;2023-08-24T01:46:07;98900.55;;;19.32;70.28
56689;BME280;42565;53.342;-1.534;2023-08-24T01:48:35;98902.85;;;19.59;70.45
56689;BME280;42565;53.342;-1.534;2023-08-24T01:51:03;98900.65;;;18.61;72.47
56689;BME280;42565;53.342;-1.534;2023-08-24T01:53:31;98900.16;;;19.34;72.07
56689;BME280;42565;53.342;-1.534;2023-08-24T01:56:00;98896.84;;;19.26;70.92
56689;BME280;42565;53.342;-1.534;2023-08-24T01:58:27;98894.06;;;19.96;70.30
56689;BME280;42565;53.342;-1.534;2023-08-24T02:00:55;98888.66;;;19.57;69.73
56689;BME280;42565;53.342;-1.534;2023-08-24T02:03:22;98887.51;;;19.57;69.91
56689;BME280;42565;53.342;-1.534;2023-08-24T02:05:49;98891.47;;;20.14;68.67
56689;BME280;42565;53.342;-1.534;2023-08-24T02:08:17;98893.91;;;19.56;70.51
56689;BME280;42565;53.342;-1.534;2023-08-24T02:10:44;98893.67;;;19.94;69.55
56689;BME280;42565;53.342;-1.534;2023-08-24T02:13:12;98887.76;;;19.61;69.52
56689;BME280;42565;53.342;-1.534;2023-08-24T02:15:39;98878.24;;;19.60;70.19
56689;BME280;42565;53.342;-1.534;2023-08-24T02:18:07;98877.89;;;19.47;70.23
56689;BME280;42565;53.342;-1.534;2023-08-24T02:20:35;98880.83;;;19.35;71.39
56689;BME280;42565;53.342;-1.534;2023-08-24T02:23:03;98876.66;;;19.71;71.23
56689;BME280;42565;53.342;-1.534;2023-08-24T02:25:30;98868.22;;;19.69;70.43
56689;BME280;42565;53.342;-1.534;2023-08-24T02:27:57;98870.30;;;19.45;69.67
56689;BME280;42565;53.342;-1.534;2023-08-24T02:30:25;98862.43;;;19.53;71.10
56689;BME280;42565;53.342;-1.534;2023-08-24T02:32:53;98847.69;;;19.55;70.43
56689;BME280;42565;53.342;-1.534;2023-08-24T02:35:19;98850.27;;;19.97;69.27
56689;BME280;42565;53.342;-1.534;2023-08-24T02:37:47;98847.76;;;20.27;68.40
56689;BME280;42565;53.342;-1.534;2023-08-24T02:40:14;98852.37;;;19.59;69.54
56689;BME280;42565;53.342;-1.534;2023-08-24T02:42:42;98852.23;;;19.91;69.26
56689;BME280;42565;53.342;-1.534;2023-08-24T02:45:09;98854.07;;;18.89;69.51
56689;BME280;42565;53.342;-1.534;2023-08-24T02:47:37;98850.38;;;19.79;69.47
56689;BME280;42565;53.342;-1.534;2023-08-24T02:50:05;98847.71;;;19.30;68.75
56689;BME280;42565;53.342;-1.534;2023-08-24T02:52:32;98844.06;;;19.93;68.18
56689;BME280;42565;53.342;-1.534;2023-08-24T02:54:59;98847.04;;;19.43;68.08
56689;BME280;42565;53.342;-1.534;2023-08-24T02:57:27;98844.39;;;19.93;68.23
56689;BME280;42565;53.342;-1.534;2023-08-24T02:59:55;98845.44;;;19.73;68.64
56689;BME280;42565;53.342;-1.534;2023-08-24T03:02:22;98848.47;;;18.59;72.77
56689;BME280;42565;53.342;-1.534;2023-08-24T03:04:49;98853.83;;;19.12;72.49
56689;BME280;42565;53.342;-1.534;2023-08-24T03:07:17;98844.61;;;18.71;72.90
56689;BME280;42565;53.342;-1.534;2023-08-24T03:09:45;98836.14;;;18.75;73.58
56689;BME280;42565;53.342;-1.534;2023-08-24T03:12:12;98829.83;;;18.94;72.40
56689;BME280;42565;53.342;-1.534;2023-08-24T03:14:39;98843.57;;;19.49;71.26
56689;BME280;42565;53.342;-1.534;2023-08-24T03:17:06;98852.50;;;18.64;71.07
56689;BME280;42565;53.342;-1.534;2023-08-24T03:19:33;98853.11;;;19.60;70.21
56689;BME280;42565;53.342;-1.534;2023-08-24T03:22:01;98852.14;;;19.08;69.79
56689;BME280;42565;53.342;-1.534;2023-08-24T03:24:28;98847.79;;;20.06;68.89
56689;BME280;42565;53.342;-1.534;2023-08-24T03:26:55;98844.24;;;19.51;69.69
56689;BME280;42565;53.342;-1.534;2023-08-24T03:29:22;98838.16;;;19.74;69.23
56689;BME280;42565;53.342;-1.534;2023-08-24T03:31:49;98836.65;;;20.10;68.77
56689;BME280;42565;53.342;-1.534;2023-08-24T03:34:16;98829.47;;;20.02;68.34
56689;BME280;42565;53.342;-1.534;2023-08-24T03:36:44;98826.43;;;19.97;69.79
56689;BME280;42565;53.342;-1.534;2023-08-24T03:39:11;98828.81;;;19.76;68.83
56689;BME280;42565;53.342;-1.534;2023-08-24T03:41:38;98829.98;;;19.83;70.24
56689;BME280;42565;53.342;-1.534;2023-08-24T03:44:05;98832.24;;;19.33;70.36
56689;BME280;42565;53.342;-1.534;2023-08-24T03:46:33;98833.03;;;19.86;70.50
56689;BME280;42565;53.342;-1.534;2023-08-24T03:48:59;98830.57;;;19.31;70.43
56689;BME280;42565;53.342;-1.534;2023-08-24T03:51:27;98829.36;;;19.53;70.55
56689;BME280;42565;53.342;-1.534;2023-08-24T03:53:55;98821.56;;;19.71;70.64
56689;BME280;42565;53.342;-1.534;2023-08-24T03:56:22;98815.18;;;19.79;70.49
56689;BME280;42565;53.342;-1.534;2023-08-24T03:58:50;98803.76;;;19.83;70.59
56689;BME280;42565;53.342;-1.534;2023-08-24T04:01:17;98805.60;;;18.84;71.92
56689;BME280;42565;53.342;-1.534;2023-08-24T04:03:43;98810.02;;;18.33;75.67
56689;BME280;42565;53.342;-1.534;2023-08-24T04:06:11;98817.32;;;18.64;73.79
56689;BME280;42565;53.342;-1.534;2023-08-24T04:08:39;98816.78;;;19.01;73.26
56689;BME280;42565;53.342;-1.534;2023-08-24T04:11:06;98812.75;;;19.05;72.35
56689;BME280;42565;53.342;-1.534;2023-08-24T04:13:33;98813.67;;;19.19;71.96
56689;BME280;42565;53.342;-1.534;2023-08-24T04:16:00;98809.78;;;18.56;72.83
56689;BME280;42565;53.342;-1.534;2023-08-24T04:18:28;98806.14;;;19.61;71.17
56689;BME280;42565;53.342;-1.534;2023-08-24T04:20:55;98799.16;;;19.33;71.53
56689;BME280;42565;53.342;-1.534;2023-08-24T04:23:24;98786.98;;;19.09;68.61
56689;BME280;42565;53.342;-1.534;2023-08-24T04:25:51;98781.89;;;18.92;69.23
56689;BME280;42565;53.342;-1.534;2023-08-24T04:28:19;98783.38;;;19.46;68.64
56689;BME280;42565;53.342;-1.534;2023-08-24T04:30:50;98782.32;;;19.57;67.31
56689;BME280;42565;53.342;-1.534;2023-08-24T04:33:18;98778.46;;;19.37;66.11
56689;BME280;42565;53.342;-1.534;2023-08-24T04:35:46;98772.14;;;19.69;65.25
56689;BME280;42565;53.342;-1.534;2023-08-24T04:38:13;98768.60;;;19.09;65.43
56689;BME280;42565;53.342;-1.534;2023-08-24T04:40:50;98772.26;;;19.33;64.93
56689;BME280;42565;53.342;-1.534;2023-08-24T04:43:18;98780.72;;;18.38;67.59
56689;BME280;42565;53.342;-1.534;2023-08-24T04:45:46;98781.58;;;18.58;68.25
56689;BME280;42565;53.342;-1.534;2023-08-24T04:48:14;98776.80;;;18.02;70.21
56689;BME280;42565;53.342;-1.534;2023-08-24T04:50:43;98776.53;;;19.05;69.33
56689;BME280;42565;53.342;-1.534;2023-08-24T04:53:13;98771.29;;;17.99;69.29
56689;BME280;42565;53.342;-1.534;2023-08-24T04:55:41;98767.76;;;18.85;68.07
56689;BME280;42565;53.342;-1.534;2023-08-24T04:58:09;98764.86;;;18.74;67.00
56689;BME280;42565;53.342;-1.534;2023-08-24T05:00:37;98767.20;;;19.01;66.79
56689;BME280;42565;53.342;-1.534;2023-08-24T05:03:05;98763.88;;;18.25;66.06
56689;BME280;42565;53.342;-1.534;2023-08-24T05:05:33;98760.93;;;19.20;65.13
56689;BME280;42565;53.342;-1.534;2023-08-24T05:08:02;98758.50;;;18.45;64.40
56689;BME280;42565;53.342;-1.534;2023-08-24T05:10:30;98761.86;;;19.11;64.44
56689;BME280;42565;53.342;-1.534;2023-08-24T05:12:58;98764.65;;;18.43;63.69
56689;BME280;42565;53.342;-1.534;2023-08-24T05:15:26;98765.18;;;19.06;62.86
56689;BME280;42565;53.342;-1.534;2023-08-24T05:17:54;98766.27;;;18.82;62.84
56689;BME280;42565;53.342;-1.534;2023-08-24T05:20:21;98759.63;;;18.60;62.76
56689;BME280;42565;53.342;-1.534;2023-08-24T05:22:49;98768.50;;;19.16;61.94
56689;BME280;42565;53.342;-1.534;2023-08-24T05:25:16;98773.75;;;18.82;61.05
56689;BME280;42565;53.342;-1.534;2023-08-24T05:27:44;98775.98;;;18.75;59.66
56689;BME280;42565;53.342;-1.534;2023-08-24T05:30:12;98776.35;;;19.07;59.20
56689;BME280;42565;53.342;-1.534;2023-08-24T05:32:39;98774.04;;;18.80;58.14
56689;BME280;42565;53.342;-1.534;2023-08-24T05:35:07;98774.98;;;18.33;57.90
56689;BME280;42565;53.342;-1.534;2023-08-24T05:37:35;98768.44;;;18.34;59.96
56689;BME280;42565;53.342;-1.534;2023-08-24T05:40:03;98765.45;;;17.23;60.01
56689;BME280;42565;53.342;-1.534;2023-08-24T05:42:30;98767.40;;;18.11;60.22
56689;BME280;42565;53.342;-1.534;2023-08-24T05:44:58;98766.33;;;17.41;60.69
56689;BME280;42565;53.342;-1.534;2023-08-24T05:47:25;98758.12;;;18.43;57.94
56689;BME280;42565;53.342;-1.534;2023-08-24T05:49:53;98761.18;;;17.86;59.72
56689;BME280;42565;53.342;-1.534;2023-08-24T05:52:20;98759.48;;;17.96;60.18
56689;BME280;42565;53.342;-1.534;2023-08-24T05:54:48;98751.09;;;18.29;59.76
56689;BME280;42565;53.342;-1.534;2023-08-24T05:57:16;98748.91;;;18.50;57.83
56689;BME280;42565;53.342;-1.534;2023-08-24T05:59:43;98746.54;;;17.84;58.77
56689;BME280;42565;53.342;-1.534;2023-08-24T06:02:10;98749.04;;;17.97;58.68
56689;BME280;42565;53.342;-1.534;2023-08-24T06:04:38;98753.30;;;17.96;59.60
56689;BME280;42565;53.342;-1.534;2023-08-24T06:07:06;98740.84;;;16.74;59.79
56689;BME280;42565;53.342;-1.534;2023-08-24T06:09:33;98736.21;;;18.47;59.03
56689;BME280;42565;53.342;-1.534;2023-08-24T06:12:00;98749.82;;;18.12;57.59
56689;BME280;42565;53.342;-1.534;2023-08-24T06:14:27;98740.07;;;18.32;57.10
56689;BME280;42565;53.342;-1.534;2023-08-24T06:16:55;98736.16;;;18.73;57.13
56689;BME280;42565;53.342;-1.534;2023-08-24T06:19:22;98724.81;;;19.15;54.90
56689;BME280;42565;53.342;-1.534;2023-08-24T06:21:49;98728.17;;;19.16;55.48
56689;BME280;42565;53.342;-1.534;2023-08-24T06:24:17;98731.08;;;18.58;55.79
56689;BME280;42565;53.342;-1.534;2023-08-24T06:26:44;98727.86;;;18.93;56.08
56689;BME280;42565;53.342;-1.534;2023-08-24T06:29:12;98720.78;;;19.12;56.13
56689;BME280;42565;53.342;-1.534;2023-08-24T06:31:39;98716.62;;;19.22;56.28
56689;BME280;42565;53.342;-1.534;2023-08-24T06:34:07;98719.20;;;18.88;57.05
56689;BME280;42565;53.342;-1.534;2023-08-24T06:36:34;98716.67;;;19.02;57.83
56689;BME280;42565;53.342;-1.534;2023-08-24T06:39:02;98705.27;;;18.71;57.46
56689;BME280;42565;53.342;-1.534;2023-08-24T06:41:33;98700.62;;;19.19;55.94
56689;BME280;42565;53.342;-1.534;2023-08-24T06:44:00;98697.27;;;18.31;57.18
56689;BME280;42565;53.342;-1.534;2023-08-24T06:46:27;98696.66;;;18.42;57.77
56689;BME280;42565;53.342;-1.534;2023-08-24T06:48:55;98696.11;;;17.95;61.13
56689;BME280;42565;53.342;-1.534;2023-08-24T06:51:22;98689.05;;;18.07;60.30
56689;BME280;42565;53.342;-1.534;2023-08-24T06:53:50;98682.41;;;18.52;59.41
56689;BME280;42565;53.342;-1.534;2023-08-24T06:56:17;98682.09;;;18.57;58.16
56689;BME280;42565;53.342;-1.534;2023-08-24T06:58:44;98682.76;;;18.46;61.07
56689;BME280;42565;53.342;-1.534;2023-08-24T07:01:11;98685.03;;;18.27;60.96
56689;BME280;42565;53.342;-1.534;2023-08-24T07:03:39;98693.97;;;17.88;62.50
56689;BME280;42565;53.342;-1.534;2023-08-24T07:06:06;98686.64;;;16.89;64.50
56689;BME280;42565;53.342;-1.534;2023-08-24T07:08:34;98681.14;;;18.28;62.72
56689;BME280;42565;53.342;-1.534;2023-08-24T07:11:02;98675.65;;;18.17;61.05
56689;BME280;42565;53.342;-1.534;2023-08-24T07:13:29;98674.43;;;18.90;60.06
56689;BME280;42565;53.342;-1.534;2023-08-24T07:15:57;98680.06;;;18.43;61.33
56689;BME280;42565;53.342;-1.534;2023-08-24T07:18:24;98688.88;;;18.60;63.17
56689;BME280;42565;53.342;-1.534;2023-08-24T07:20:51;98690.67;;;18.83;62.38
56689;BME280;42565;53.342;-1.534;2023-08-24T07:23:19;98688.18;;;18.91;61.71
56689;BME280;42565;53.342;-1.534;2023-08-24T07:25:46;98684.05;;;18.69;64.02
56689;BME280;42565;53.342;-1.534;2023-08-24T07:28:14;98683.46;;;18.50;64.05
56689;BME280;42565;53.342;-1.534;2023-08-24T07:30:41;98683.19;;;18.72;62.64
56689;BME280;42565;53.342;-1.534;2023-08-24T07:33:09;98677.55;;;18.86;62.44
56689;BME280;42565;53.342;-1.534;2023-08-24T07:35:36;98678.41;;;19.10;61.40
56689;BME280;42565;53.342;-1.534;2023-08-24T07:38:04;98674.91;;;18.58;61.45
56689;BME280;42565;53.342;-1.534;2023-08-24T07:40:32;98661.41;;;19.65;60.42
56689;BME280;42565;53.342;-1.534;2023-08-24T07:42:59;98662.39;;;19.32;59.38
56689;BME280;42565;53.342;-1.534;2023-08-24T07:45:26;98659.45;;;19.71;59.37
56689;BME280;42565;53.342;-1.534;2023-08-24T07:47:54;98648.05;;;20.32;58.76
56689;BME280;42565;53.342;-1.534;2023-08-24T07:50:21;98648.38;;;20.14;60.76
56689;BME280;42565;53.342;-1.534;2023-08-24T07:52:49;98647.48;;;19.91;60.67
56689;BME280;42565;53.342;-1.534;2023-08-24T07:55:16;98641.16;;;18.83;63.95
56689;BME280;42565;53.342;-1.534;2023-08-24T07:57:44;98639.12;;;18.89;64.33
56689;BME280;42565;53.342;-1.534;2023-08-24T08:00:12;98636.50;;;18.75;63.60
56689;BME280;42565;53.342;-1.534;2023-08-24T08:02:40;98635.93;;;19.57;63.54
56689;BME280;42565;53.342;-1.534;2023-08-24T08:05:07;98642.09;;;19.19;64.84
56689;BME280;42565;53.342;-1.534;2023-08-24T08:07:34;98639.53;;;20.33;62.99
56689;BME280;42565;53.342;-1.534;2023-08-24T08:10:03;98635.65;;;20.09;61.62
56689;BME280;42565;53.342;-1.534;2023-08-24T08:12:31;98633.64;;;20.74;60.96
56689;BME280;42565;53.342;-1.534;2023-08-24T08:14:59;98640.08;;;20.30;59.48
56689;BME280;42565;53.342;-1.534;2023-08-24T08:17:26;98642.36;;;20.80;59.56
56689;BME280;42565;53.342;-1.534;2023-08-24T08:19:54;98639.74;;;21.20;59.84
56689;BME280;42565;53.342;-1.534;2023-08-24T08:22:22;98643.77;;;20.91;58.80
56689;BME280;42565;53.342;-1.534;2023-08-24T08:24:49;98638.33;;;21.51;58.49
56689;BME280;42565;53.342;-1.534;2023-08-24T08:27:17;98640.23;;;21.37;58.18
56689;BME280;42565;53.342;-1.534;2023-08-24T08:29:44;98645.68;;;20.96;58.24
56689;BME280;42565;53.342;-1.534;2023-08-24T08:32:12;98633.05;;;21.16;58.28
56689;BME280;42565;53.342;-1.534;2023-08-24T08:34:39;98630.65;;;21.05;59.24
56689;BME280;42565;53.342;-1.534;2023-08-24T08:37:07;98628.71;;;20.68;59.14
56689;BME280;42565;53.342;-1.534;2023-08-24T08:39:34;98634.57;;;21.30;58.47
56689;BME280;42565;53.342;-1.534;2023-08-24T08:42:01;98639.30;;;20.91;58.60
56689;BME280;42565;53.342;-1.534;2023-08-24T08:44:30;98644.62;;;21.37;59.26
56689;BME280;42565;53.342;-1.534;2023-08-24T08:46:58;98638.85;;;21.38;58.73
56689;BME280;42565;53.342;-1.534;2023-08-24T08:49:26;98622.03;;;21.38;58.19
56689;BME280;42565;53.342;-1.534;2023-08-24T08:51:54;98619.70;;;21.70;59.30
56689;BME280;42565;53.342;-1.534;2023-08-24T08:54:21;98619.01;;;21.53;58.38
56689;BME280;42565;53.342;-1.534;2023-08-24T08:56:49;98617.00;;;21.66;57.49
56689;BME280;42565;53.342;-1.534;2023-08-24T08:59:17;98617.15;;;21.91;54.81
56689;BME280;42565;53.342;-1.534;2023-08-24T09:01:45;98622.62;;;22.16;55.03
56689;BME280;42565;53.342;-1.534;2023-08-24T09:04:13;98622.26;;;21.91;55.84
56689;BME280;42565;53.342;-1.534;2023-08-24T09:06:41;98621.01;;;22.57;55.61
56689;BME280;42565;53.342;-1.534;2023-08-24T09:09:08;98628.96;;;22.17;54.83
56689;BME280;42565;53.342;-1.534;2023-08-24T09:11:36;98623.08;;;22.32;55.39
56689;BME280;42565;53.342;-1.534;2023-08-24T09:14:04;98626.65;;;21.66;55.13
56689;BME280;42565;53.342;-1.534;2023-08-24T09:16:32;98618.86;;;22.54;54.41
56689;BME280;42565;53.342;-1.534;2023-08-24T09:19:04;98613.64;;;21.56;55.34
56689;BME280;42565;53.342;-1.534;2023-08-24T09:21:37;98610.35;;;22.03;54.95
56689;BME280;42565;53.342;-1.534;2023-08-24T09:24:06;98611.93;;;21.19;54.81
56689;BME280;42565;53.342;-1.534;2023-08-24T09:26:35;98609.13;;;21.98;55.54
56689;BME280;42565;53.342;-1.534;2023-08-24T09:29:12;98604.54;;;21.68;54.34
56689;BME280;42565;53.342;-1.534;2023-08-24T09:31:41;98600.95;;;22.41;54.38
56689;BME280;42565;53.342;-1.534;2023-08-24T09:34:08;98600.27;;;21.87;55.14
56689;BME280;42565;53.342;-1.534;2023-08-24T09:36:36;98600.91;;;22.38;55.23
56689;BME280;42565;53.342;-1.534;2023-08-24T09:39:04;98601.13;;;21.68;56.96
56689;BME280;42565;53.342;-1.534;2023-08-24T09:41:40;98605.88;;;21.88;55.30
56689;BME280;42565;53.342;-1.534;2023-08-24T09:44:08;98615.14;;;21.86;55.99
56689;BME280;42565;53.342;-1.534;2023-08-24T09:46:36;98615.00;;;21.76;55.61
56689;BME280;42565;53.342;-1.534;2023-08-24T09:49:05;98606.36;;;21.82;53.94
56689;BME280;42565;53.342;-1.534;2023-08-24T09:51:33;98610.80;;;22.14;55.37
56689;BME280;42565;53.342;-1.534;2023-08-24T09:54:04;98614.40;;;21.66;55.77
56689;BME280;42565;53.342;-1.534;2023-08-24T09:56:35;98616.37;;;21.53;56.47
56689;BME280;42565;53.342;-1.534;2023-08-24T09:59:10;98620.96;;;20.59;57.77
56689;BME280;42565;53.342;-1.534;2023-08-24T10:01:38;98622.63;;;21.72;58.33
56689;BME280;42565;53.342;-1.534;2023-08-24T10:04:06;98621.31;;;20.95;58.11
56689;BME280;42565;53.342;-1.534;2023-08-24T10:06:36;98619.29;;;21.22;57.53
56689;BME280;42565;53.342;-1.534;2023-08-24T10:09:07;98615.64;;;20.71;56.81
56689;BME280;42565;53.342;-1.534;2023-08-24T10:11:39;98622.26;;;21.84;57.81
56689;BME280;42565;53.342;-1.534;2023-08-24T10:14:12;98620.01;;;21.37;56.74
56689;BME280;42565;53.342;-1.534;2023-08-24T10:16:44;98618.31;;;21.49;57.63
56689;BME280;42565;53.342;-1.534;2023-08-24T10:19:13;98616.01;;;21.35;57.36
56689;BME280;42565;53.342;-1.534;2023-08-24T10:21:40;98604.49;;;21.51;57.22
56689;BME280;42565;53.342;-1.534;2023-08-24T10:24:09;98605.00;;;20.72;58.12
56689;BME280;42565;53.342;-1.534;2023-08-24T10:26:37;98607.94;;;21.38;58.08
56689;BME280;42565;53.342;-1.534;2023-08-24T10:29:06;98610.14;;;21.23;57.02
56689;BME280;42565;53.342;-1.534;2023-08-24T10:31:40;98606.79;;;21.36;57.30
56689;BME280;42565;53.342;-1.534;2023-08-24T10:34:08;98596.96;;;21.15;56.86
56689;BME280;42565;53.342;-1.534;2023-08-24T10:36:38;98598.64;;;22.64;55.93
56689;BME280;42565;53.342;-1.534;2023-08-24T10:39:05;98588.03;;;21.82;56.49
56689;BME280;42565;53.342;-1.534;2023-08-24T10:41:50;98589.75;;;21.45;57.87
56689;BME280;42565;53.342;-1.534;2023-08-24T10:44:25;98592.21;;;21.91;56.02
56689;BME280;42565;53.342;-1.534;2023-08-24T10:47:18;98594.15;;;20.39;59.32
56689;BME280;42565;53.342;-1.534;2023-08-24T10:49:58;98592.23;;;20.51;61.51
56689;BME280;42565;53.342;-1.534;2023-08-24T10:52:30;98583.18;;;20.75;59.73
56689;BME280;42565;53.342;-1.534;2023-08-24T10:55:01;98584.66;;;20.61;59.19
56689;BME280;42565;53.342;-1.534;2023-08-24T10:57:35;98584.44;;;21.67;57.32
56689;BME280;42565;53.342;-1.534;2023-08-24T11:00:05;98587.63;;;21.16;58.04
56689;BME280;42565;53.342;-1.534;2023-08-24T11:02:50;98592.36;;;21.90;57.97
56689;BME280;42565;53.342;-1.534;2023-08-24T11:05:19;98593.71;;;21.87;57.20
56689;BME280;42565;53.342;-1.534;2023-08-24T11:07:49;98587.60;;;21.82;57.65
56689;BME280;42565;53.342;-1.534;2023-08-24T11:10:18;98591.84;;;20.79;58.56
56689;BME280;42565;53.342;-1.534;2023-08-24T11:13:18;98588.79;;;21.36;59.50
56689;BME280;42565;53.342;-1.534;2023-08-24T11:15:47;98582.82;;;21.31;58.66
56689;BME280;42565;53.342;-1.534;2023-08-24T11:18:20;98590.29;;;19.65;64.54
56689;BME280;42565;53.342;-1.534;2023-08-24T11:20:49;98589.20;;;20.59;62.63
56689;BME280;42565;53.342;-1.534;2023-08-24T11:23:17;98581.05;;;21.04;62.12
56689;BME280;42565;53.342;-1.534;2023-08-24T11:25:45;98575.99;;;21.07;60.09
56689;BME280;42565;53.342;-1.534;2023-08-24T11:28:17;98571.47;;;20.88;59.64
56689;BME280;42565;53.342;-1.534;2023-08-24T11:30:46;98572.26;;;21.72;59.02
56689;BME280;42565;53.342;-1.534;2023-08-24T11:33:14;98585.65;;;21.02;59.34
56689;BME280;42565;53.342;-1.534;2023-08-24T11:35:43;98596.93;;;21.67;59.50
56689;BME280;42565;53.342;-1.534;2023-08-24T11:38:11;98599.73;;;20.73;59.36
56689;BME280;42565;53.342;-1.534;2023-08-24T11:40:38;98598.49;;;21.05;60.15
56689;BME280;42565;53.342;-1.534;2023-08-24T11:43:05;98592.64;;;20.87;59.17
56689;BME280;42565;53.342;-1.534;2023-08-24T11:45:35;98588.51;;;21.85;58.85
56689;BME280;42565;53.342;-1.534;2023-08-24T11:48:04;98594.19;;;20.45;59.80
56689;BME280;42565;53.342;-1.534;2023-08-24T11:50:32;98594.36;;;21.18;60.21
56689;BME280;42565;53.342;-1.534;2023-08-24T11:53:00;98599.23;;;20.21;61.74
56689;BME280;42565;53.342;-1.534;2023-08-24T11:55:27;98596.79;;;20.92;60.33
56689;BME280;42565;53.342;-1.534;2023-08-24T11:57:55;98593.32;;;21.16;59.64
56689;BME280;42565;53.342;-1.534;2023-08-24T12:00:23;98599.04;;;20.77;60.92
56689;BME280;42565;53.342;-1.534;2023-08-24T12:02:51;98600.70;;;20.22;63.95
56689;BME280;42565;53.342;-1.534;2023-08-24T12:05:21;98591.07;;;20.87;62.69
56689;BME280;42565;53.342;-1.534;2023-08-24T12:07:49;98594.39;;;20.31;63.00
56689;BME280;42565;53.342;-1.534;2023-08-24T12:10:17;98598.03;;;20.47;62.62
56689;BME280;42565;53.342;-1.534;2023-08-24T12:12:45;98600.77;;;20.68;60.77
56689;BME280;42565;53.342;-1.534;2023-08-24T12:15:17;98603.80;;;20.51;60.73
56689;BME280;42565;53.342;-1.534;2023-08-24T12:17:45;98593.16;;;20.86;61.04
56689;BME280;42565;53.342;-1.534;2023-08-24T12:20:21;98589.23;;;20.68;61.28
56689;BME280;42565;53.342;-1.534;2023-08-24T12:22:51;98592.54;;;20.93;61.65
56689;BME280;42565;53.342;-1.534;2023-08-24T12:25:21;98589.55;;;20.38;60.60
56689;BME280;42565;53.342;-1.534;2023-08-24T12:27:50;98582.29;;;20.68;61.39
56689;BME280;42565;53.342;-1.534;2023-08-24T12:30:19;98588.11;;;21.07;60.60
56689;BME280;42565;53.342;-1.534;2023-08-24T12:32:48;98590.79;;;20.98;60.57
56689;BME280;42565;53.342;-1.534;2023-08-24T12:35:16;98582.20;;;20.71;60.07
56689;BME280;42565;53.342;-1.534;2023-08-24T12:37:43;98574.31;;;20.84;59.88
56689;BME280;42565;53.342;-1.534;2023-08-24T12:40:12;98584.67;;;20.62;59.75
56689;BME280;42565;53.342;-1.534;2023-08-24T12:42:39;98590.64;;;20.87;61.53
56689;BME280;42565;53.342;-1.534;2023-08-24T12:45:08;98595.98;;;19.42;62.34
56689;BME280;42565;53.342;-1.534;2023-08-24T12:47:35;98588.19;;;20.96;61.56
56689;BME280;42565;53.342;-1.534;2023-08-24T12:50:02;98585.09;;;20.35;61.29
56689;BME280;42565;53.342;-1.534;2023-08-24T12:52:29;98590.46;;;20.29;61.56
56689;BME280;42565;53.342;-1.534;2023-08-24T12:54:57;98581.61;;;20.28;61.48
56689;BME280;42565;53.342;-1.534;2023-08-24T12:57:24;98565.46;;;20.58;61.61